Accedi per prenotare

Situazione Metar e Taf aeroporto Pisa - Effemeridi Aeroporto Lucca

[Source: ADDS]
METAR
LIRP 220945Z 26009KT 230V300 CAVOK 20/14 Q1019 NOSIG =
TAF
LIRP 220500Z 2206/2306 11005KT CAVOK BECMG 2210/2212 27010KT BECMG 2219/2221 11005KT =
SR / SS: 04:26 / 18:10 UTC (Effemeridi LIQL 2018-04-22)